Аэропорт: Оренбург-Центральный. Оренбург

ICAO: UWOO

METAR:
2020-06-04 04:30:00
UWOO 040430Z 14008MPS 110V170 9999 SCT040CB 21/09 Q1015 R08/CLRD65 NOSIG RMK QFE750/1001
METAR:
2020-06-04 01:55:00
TAF UWOO 040155Z 0403/0503 12008G14MPS 9999 BKN020 TX26/0412Z TN14/0501Z TEMPO 0403/0503 15010G18MPS 6000 -SHRA BKN016CB